createdAt,value
2018-07-31T05:47:14.649Z,64.1
2018-07-31T05:47:34.799Z,64.3
2018-07-31T05:47:54.937Z,63.9
2018-07-31T05:48:15.068Z,63.7
2018-07-31T05:48:35.229Z,64.3
2018-07-31T05:48:55.417Z,63.8
2018-07-31T05:49:15.541Z,64.1
2018-07-31T05:49:35.733Z,63.9
2018-07-31T05:49:55.875Z,63.7
2018-07-31T05:50:16.041Z,64
2018-07-31T05:50:36.206Z,63.9
2018-07-31T05:50:56.362Z,64.1
2018-07-31T05:51:16.495Z,64
2018-07-31T05:51:36.623Z,63.7
2018-07-31T05:51:56.880Z,63.9
2018-07-31T05:52:17.167Z,63.1
2018-07-31T05:52:37.305Z,63.5
2018-07-31T05:52:57.452Z,63.7
2018-07-31T05:53:17.581Z,63.2
2018-07-31T05:53:37.752Z,63.7
2018-07-31T05:53:57.896Z,63.6
2018-07-31T05:54:18.070Z,63.4
2018-07-31T05:54:38.205Z,63.3
2018-07-31T05:54:58.355Z,63.2
2018-07-31T05:55:18.515Z,63.4
2018-07-31T05:55:38.716Z,62.9
2018-07-31T05:55:58.837Z,63.1
2018-07-31T05:56:18.970Z,63
2018-07-31T05:56:39.128Z,62.6
2018-07-31T05:56:59.274Z,62.7
2018-07-31T05:57:19.420Z,62.7
2018-07-31T05:57:39.560Z,62.6
2018-07-31T05:57:59.707Z,62.4
2018-07-31T05:58:19.868Z,62.6
2018-07-31T05:58:40.038Z,62.7
2018-07-31T05:59:00.241Z,62.9
2018-07-31T05:59:20.403Z,62.2
2018-07-31T05:59:40.540Z,62
2018-07-31T06:00:00.695Z,61.9
2018-07-31T06:00:20.863Z,61.9
2018-07-31T06:00:40.998Z,62.1
2018-07-31T06:01:01.126Z,62.1
2018-07-31T06:01:21.282Z,62.3
2018-07-31T06:01:41.477Z,62.5
2018-07-31T06:02:01.625Z,62.3
2018-07-31T06:02:21.727Z,61.9
2018-07-31T06:02:41.882Z,62.1
2018-07-31T06:03:02.038Z,62
2018-07-31T06:03:22.204Z,62
2018-07-31T06:03:42.355Z,62
2018-07-31T06:04:02.504Z,62
2018-07-31T06:04:22.661Z,62
2018-07-31T06:04:42.809Z,62.1
2018-07-31T06:05:02.959Z,62.1
2018-07-31T06:05:23.127Z,62.1
2018-07-31T06:05:43.296Z,62.1
2018-07-31T06:06:03.429Z,62.2
2018-07-31T06:06:23.580Z,62
2018-07-31T06:06:43.717Z,62.3
2018-07-31T06:07:03.890Z,61.9
2018-07-31T06:07:24.037Z,61.3
2018-07-31T06:07:44.173Z,61.3
2018-07-31T06:08:04.365Z,61.5
2018-07-31T06:08:24.493Z,61.7
2018-07-31T06:08:44.630Z,61.7
2018-07-31T06:09:04.783Z,61.2
2018-07-31T06:09:24.987Z,61.2
2018-07-31T06:09:45.092Z,61
2018-07-31T06:10:05.273Z,61
2018-07-31T06:10:25.420Z,60.9
2018-07-31T06:10:45.572Z,61.1
2018-07-31T06:11:05.713Z,60.6
2018-07-31T06:11:25.991Z,60.3
2018-07-31T06:11:46.181Z,60.6
2018-07-31T06:12:06.335Z,60.7
2018-07-31T06:12:26.485Z,60.2
2018-07-31T06:12:46.622Z,59.8
2018-07-31T06:13:06.808Z,60.5
2018-07-31T06:13:26.964Z,60.2
2018-07-31T06:13:47.137Z,60.7
2018-07-31T06:14:07.248Z,60.7
2018-07-31T06:14:27.409Z,59.8
2018-07-31T06:14:47.544Z,59.8
2018-07-31T06:15:07.789Z,60.3
2018-07-31T06:15:27.892Z,59.8
2018-07-31T06:15:48.058Z,59.8
2018-07-31T06:16:08.227Z,59.7
2018-07-31T06:16:28.407Z,60
2018-07-31T06:16:48.574Z,59.8
2018-07-31T06:17:08.736Z,60.2
2018-07-31T06:17:28.867Z,59.8
2018-07-31T06:17:49.029Z,59.8
2018-07-31T06:18:09.186Z,59.8
2018-07-31T06:18:29.342Z,60.2
2018-07-31T06:18:49.507Z,59.9
2018-07-31T06:19:09.659Z,60.3
2018-07-31T06:19:29.862Z,59.6
2018-07-31T06:19:50.018Z,60.2
2018-07-31T06:20:10.184Z,59.6
2018-07-31T06:20:30.337Z,59.2
2018-07-31T06:20:50.497Z,60.1
2018-07-31T06:21:10.643Z,60.6
2018-07-31T06:21:30.820Z,59.8
2018-07-31T06:21:50.947Z,60
2018-07-31T06:22:11.085Z,59.1
2018-07-31T06:22:31.245Z,58.8
2018-07-31T06:22:51.393Z,59
2018-07-31T06:23:11.539Z,58.3
2018-07-31T06:23:31.741Z,58.9
2018-07-31T06:23:51.906Z,59.2
2018-07-31T06:24:12.040Z,59.1
2018-07-31T06:24:32.172Z,59.5
2018-07-31T06:24:52.350Z,59
2018-07-31T06:25:12.520Z,59.5
2018-07-31T06:25:32.671Z,59.8
2018-07-31T06:25:53.089Z,59.1
2018-07-31T06:26:13.251Z,59.3
2018-07-31T06:26:33.400Z,59.1
2018-07-31T06:26:53.573Z,59
2018-07-31T06:27:13.735Z,59.1
2018-07-31T06:27:33.888Z,59.6
2018-07-31T06:27:54.050Z,59.1
2018-07-31T06:28:14.242Z,59.6
2018-07-31T06:28:34.438Z,59.4
2018-07-31T06:28:54.607Z,59.4
2018-07-31T06:29:14.747Z,59
2018-07-31T06:29:34.890Z,58.2
2018-07-31T06:29:55.050Z,58.4
2018-07-31T06:30:15.199Z,58.2
2018-07-31T06:30:35.370Z,58.3
2018-07-31T06:30:55.502Z,57.7
2018-07-31T06:31:15.691Z,58.1
2018-07-31T06:31:35.877Z,58.4
2018-07-31T06:31:56.072Z,58.7
2018-07-31T06:32:16.226Z,58.2
2018-07-31T06:32:36.381Z,57
2018-07-31T06:32:56.613Z,56.6
2018-07-31T06:33:16.736Z,56.7
2018-07-31T06:33:36.927Z,56.7
2018-07-31T06:33:57.092Z,57
2018-07-31T06:34:17.293Z,57.3
2018-07-31T06:34:37.402Z,57.4
2018-07-31T06:34:57.580Z,57.5
2018-07-31T06:35:17.735Z,57.5
2018-07-31T06:35:37.865Z,57.7
2018-07-31T06:35:58.043Z,57.5
2018-07-31T06:36:18.221Z,58.2
2018-07-31T06:36:38.398Z,58.2
2018-07-31T06:36:58.565Z,57.4
2018-07-31T06:37:18.708Z,56.8
2018-07-31T06:37:38.877Z,56.6
2018-07-31T06:37:59.053Z,57.4
2018-07-31T06:38:19.202Z,57.7
2018-07-31T06:38:39.344Z,57.5
2018-07-31T06:38:59.523Z,57.1
2018-07-31T06:39:19.745Z,56.6
2018-07-31T06:39:39.902Z,56.3
2018-07-31T06:40:00.063Z,56.6
2018-07-31T06:40:20.288Z,56.4
2018-07-31T06:40:40.400Z,56.3
2018-07-31T06:41:00.562Z,56.7
2018-07-31T06:41:20.708Z,56.6
2018-07-31T06:41:40.864Z,56.7
2018-07-31T06:42:01.024Z,55.8
2018-07-31T06:42:21.147Z,55.8
2018-07-31T06:42:41.304Z,55.7
2018-07-31T06:43:01.471Z,55.5
2018-07-31T06:43:21.646Z,56.1
2018-07-31T06:43:41.791Z,55.9
2018-07-31T06:44:01.960Z,55.6
2018-07-31T06:44:22.081Z,56.1
2018-07-31T06:44:42.213Z,56
2018-07-31T06:45:02.367Z,56.3
2018-07-31T06:45:22.568Z,56
2018-07-31T06:45:42.756Z,56
2018-07-31T06:46:02.915Z,55.9
2018-07-31T06:46:23.084Z,56
2018-07-31T06:46:43.263Z,55.7
2018-07-31T06:47:03.416Z,55.5
2018-07-31T06:47:23.590Z,55.8
2018-07-31T06:47:43.742Z,56.1
2018-07-31T06:48:03.881Z,55.6
2018-07-31T06:48:24.030Z,55.7
2018-07-31T06:48:44.197Z,55.9
2018-07-31T06:49:04.380Z,55.7
2018-07-31T06:49:24.713Z,55.9
2018-07-31T06:49:44.805Z,55.4
2018-07-31T06:50:04.945Z,55.7
2018-07-31T06:50:25.103Z,55.9
2018-07-31T06:50:45.263Z,55.7
2018-07-31T06:51:05.461Z,55.9
2018-07-31T06:51:25.633Z,55.8
2018-07-31T06:51:45.785Z,55.6
2018-07-31T06:52:05.985Z,55.3
2018-07-31T06:52:26.137Z,55.3
2018-07-31T06:52:46.282Z,55.6
2018-07-31T06:53:06.424Z,56
2018-07-31T06:53:26.577Z,55.5
2018-07-31T06:53:46.717Z,55.3
2018-07-31T06:54:06.902Z,55
2018-07-31T06:54:27.081Z,55.3
2018-07-31T06:54:47.219Z,55.4
2018-07-31T06:55:07.420Z,55.9
2018-07-31T06:55:27.576Z,55.5
2018-07-31T06:55:47.735Z,55.5
2018-07-31T06:56:07.907Z,55.3
2018-07-31T06:56:28.047Z,55.2
2018-07-31T06:56:48.360Z,54.8
2018-07-31T06:57:08.461Z,55.2
2018-07-31T06:57:28.655Z,55
2018-07-31T06:57:48.824Z,55.1
2018-07-31T06:58:08.974Z,55.1
2018-07-31T06:58:29.167Z,55.1
2018-07-31T06:58:49.375Z,54.9
2018-07-31T06:59:09.534Z,54.6
2018-07-31T06:59:29.687Z,54.5
2018-07-31T06:59:49.836Z,54.8
2018-07-31T07:00:09.983Z,54.9
2018-07-31T07:00:30.154Z,54.4
2018-07-31T07:00:50.365Z,54.8
2018-07-31T07:01:10.502Z,54.5
2018-07-31T07:01:30.642Z,54.5
2018-07-31T07:01:50.791Z,54.8
2018-07-31T07:02:11.070Z,54.8
2018-07-31T07:02:31.153Z,54.7
2018-07-31T07:02:51.313Z,54.4
2018-07-31T07:03:11.494Z,54.1
2018-07-31T07:03:31.665Z,54.4
2018-07-31T07:03:51.878Z,54.8
2018-07-31T07:04:12.015Z,54.2
2018-07-31T07:04:32.199Z,54.3
2018-07-31T07:04:52.421Z,54.3
2018-07-31T07:05:12.534Z,53.9
2018-07-31T07:05:32.689Z,54.1
2018-07-31T07:05:52.875Z,54.2
2018-07-31T07:06:13.019Z,54.7
2018-07-31T07:06:33.182Z,54.6
2018-07-31T07:06:53.363Z,54.4
2018-07-31T07:07:13.533Z,54.4
2018-07-31T07:07:33.697Z,54.2
2018-07-31T07:07:53.870Z,54.3
2018-07-31T07:08:14.056Z,54.3
2018-07-31T07:08:34.188Z,54.3
2018-07-31T07:08:54.351Z,53.4
2018-07-31T07:09:14.538Z,53.6
2018-07-31T07:09:34.674Z,53.6
2018-07-31T07:09:54.819Z,53.7
2018-07-31T07:10:14.962Z,53.5
2018-07-31T07:10:35.129Z,53.9
2018-07-31T07:10:55.296Z,53.8
2018-07-31T07:11:15.441Z,53.6
2018-07-31T07:11:35.593Z,54.1
2018-07-31T07:11:55.747Z,53.8
2018-07-31T07:12:15.929Z,53.7
2018-07-31T07:12:36.070Z,53.6
2018-07-31T07:12:56.228Z,54.1
2018-07-31T07:13:16.377Z,54
2018-07-31T07:13:36.510Z,53.5
2018-07-31T07:13:56.675Z,54.4
2018-07-31T07:14:16.870Z,53.6
2018-07-31T07:14:37.039Z,53.3
2018-07-31T07:14:57.229Z,53.2
2018-07-31T07:15:17.368Z,52.2
2018-07-31T07:15:37.686Z,52.3
2018-07-31T07:15:57.854Z,52.2
2018-07-31T07:16:18.023Z,52.1
2018-07-31T07:16:38.198Z,52.6
2018-07-31T07:16:58.345Z,52.4
2018-07-31T07:17:18.529Z,52.2
2018-07-31T07:17:38.698Z,52.7
2018-07-31T07:17:58.948Z,53.1
2018-07-31T07:18:19.171Z,51.9
2018-07-31T07:18:39.325Z,51.6
2018-07-31T07:18:59.517Z,52.1
2018-07-31T07:19:19.906Z,51.6
2018-07-31T07:19:40.040Z,51.1
2018-07-31T07:20:00.212Z,51.4
2018-07-31T07:20:20.371Z,51.1
2018-07-31T07:20:40.521Z,51.1
2018-07-31T07:21:00.903Z,51.2
2018-07-31T07:21:21.027Z,50.7
2018-07-31T07:21:41.177Z,50.1
2018-07-31T07:22:01.316Z,50.1
2018-07-31T07:22:21.417Z,50.5
2018-07-31T07:22:41.657Z,50.8
2018-07-31T07:23:01.726Z,50.5
2018-07-31T07:23:21.872Z,50.7
2018-07-31T07:23:42.001Z,51.1
2018-07-31T07:24:02.176Z,50.8
2018-07-31T07:24:22.349Z,50.9
2018-07-31T07:24:42.536Z,50.4
2018-07-31T07:25:02.674Z,50.7
2018-07-31T07:25:22.826Z,50.5
2018-07-31T07:25:42.981Z,51.3
2018-07-31T07:26:03.168Z,51.1
2018-07-31T07:26:23.350Z,51
2018-07-31T07:26:43.490Z,51.1
2018-07-31T07:27:03.619Z,50.8
2018-07-31T07:27:23.858Z,51
2018-07-31T07:27:44.023Z,50.9
2018-07-31T07:28:04.325Z,50
2018-07-31T07:28:24.463Z,49.9
2018-07-31T07:28:44.622Z,49.9
2018-07-31T07:29:04.767Z,49.8
2018-07-31T07:29:24.940Z,50.2
2018-07-31T07:29:45.130Z,49.9
2018-07-31T07:30:05.289Z,49.1
2018-07-31T07:30:25.447Z,48
2018-07-31T07:30:45.592Z,48
2018-07-31T07:31:05.725Z,47.9
2018-07-31T07:31:25.855Z,47.7
2018-07-31T07:31:46.021Z,48
2018-07-31T07:32:06.159Z,48.3
2018-07-31T07:32:26.320Z,48.8
2018-07-31T07:32:46.505Z,48.9
2018-07-31T07:33:06.705Z,49
2018-07-31T07:33:26.840Z,48.9
2018-07-31T07:33:47.161Z,49.3
2018-07-31T07:34:07.664Z,49.1
2018-07-31T07:34:27.809Z,49.6
2018-07-31T07:34:47.958Z,49.5
2018-07-31T07:35:08.102Z,49.8
2018-07-31T07:35:28.271Z,49.2
2018-07-31T07:35:48.476Z,49.4
2018-07-31T07:36:08.642Z,48.8
2018-07-31T07:36:28.835Z,48.4
2018-07-31T07:36:48.992Z,47.9
2018-07-31T07:37:09.145Z,47.9
2018-07-31T07:37:29.308Z,48
2018-07-31T07:37:49.480Z,47.9
2018-07-31T07:38:09.673Z,48.2
2018-07-31T07:38:29.836Z,48.2
2018-07-31T07:38:50.005Z,48.4
2018-07-31T07:39:10.153Z,48.5
2018-07-31T07:39:30.338Z,48.3
2018-07-31T07:39:50.496Z,48.2
2018-07-31T07:40:10.703Z,48.1
2018-07-31T07:40:30.841Z,47.7
2018-07-31T07:40:50.976Z,46.9
2018-07-31T07:41:11.141Z,46.5
2018-07-31T07:41:31.328Z,46.6
2018-07-31T07:41:51.477Z,47.4
2018-07-31T07:42:11.654Z,47.6
2018-07-31T07:42:31.801Z,48
2018-07-31T07:42:51.965Z,47.4
2018-07-31T07:43:12.122Z,46.5
2018-07-31T07:43:32.261Z,46.9
2018-07-31T07:43:52.390Z,47.6
2018-07-31T07:44:12.550Z,47.4
2018-07-31T07:44:32.713Z,47.6
2018-07-31T07:44:52.852Z,47.5
2018-07-31T07:45:13.016Z,47.4
2018-07-31T07:45:33.189Z,47.6
2018-07-31T07:45:53.318Z,47.4
2018-07-31T07:46:13.471Z,47.5
2018-07-31T07:46:33.611Z,47.4
2018-07-31T07:46:53.777Z,47.5
2018-07-31T07:47:13.931Z,47.6
2018-07-31T07:47:34.089Z,47.7
2018-07-31T07:47:54.226Z,47.8
2018-07-31T07:48:14.370Z,46.4
2018-07-31T07:48:34.531Z,46.6
2018-07-31T07:48:54.679Z,46.6
2018-07-31T07:49:14.831Z,46.7
2018-07-31T07:49:35.047Z,46.4
2018-07-31T07:49:55.150Z,46.4
2018-07-31T07:50:15.315Z,46.1
2018-07-31T07:50:35.508Z,46.3
2018-07-31T07:50:55.676Z,46.3
2018-07-31T07:51:15.857Z,45.7
2018-07-31T07:51:36.071Z,45.1
2018-07-31T07:51:56.217Z,45.3
2018-07-31T07:52:16.393Z,45.5
2018-07-31T07:52:36.601Z,45.3
2018-07-31T07:52:56.743Z,46.4
2018-07-31T07:53:16.895Z,45.5
2018-07-31T07:53:37.052Z,44.5
2018-07-31T07:53:57.265Z,44.7
2018-07-31T07:54:17.458Z,44.6
2018-07-31T07:54:37.685Z,44.7
2018-07-31T07:54:57.859Z,44
2018-07-31T07:55:18.021Z,44.4
2018-07-31T07:55:38.182Z,44.4
2018-07-31T07:55:58.348Z,44.4
2018-07-31T07:56:18.537Z,44.5
2018-07-31T07:56:38.674Z,44.1
2018-07-31T07:56:58.843Z,44.4
2018-07-31T07:57:19.001Z,43.8
2018-07-31T07:57:39.160Z,43.5
2018-07-31T07:57:59.312Z,43.2
2018-07-31T07:58:19.453Z,43.3
2018-07-31T07:58:39.695Z,43.3
2018-07-31T07:58:59.856Z,43.8
2018-07-31T07:59:20.055Z,43.4
2018-07-31T07:59:40.184Z,43.1
2018-07-31T08:00:00.365Z,43.2
2018-07-31T08:00:20.520Z,43.7
2018-07-31T08:00:40.694Z,43.8
2018-07-31T08:01:00.843Z,43.9
2018-07-31T08:01:21.028Z,42.3
2018-07-31T08:01:41.199Z,42
2018-07-31T08:02:01.365Z,42.4
2018-07-31T08:02:21.525Z,42.6
2018-07-31T08:02:41.668Z,42.5
2018-07-31T08:03:01.839Z,42.7
2018-07-31T08:03:22.032Z,42.7
2018-07-31T08:03:42.229Z,41.8
2018-07-31T08:04:02.335Z,41.8
2018-07-31T08:04:22.486Z,41.8
2018-07-31T08:04:42.657Z,41.3
2018-07-31T08:05:02.809Z,41.7
2018-07-31T08:05:22.948Z,41.8
2018-07-31T08:05:43.122Z,42
2018-07-31T08:06:03.295Z,42
2018-07-31T08:06:23.425Z,41.9
2018-07-31T08:06:43.633Z,40.6
2018-07-31T08:07:03.772Z,40.4
2018-07-31T08:07:23.961Z,40.4
2018-07-31T08:07:44.161Z,40.4
2018-07-31T08:08:04.317Z,40.1
2018-07-31T08:08:24.477Z,39.7
2018-07-31T08:08:44.679Z,40.2
2018-07-31T08:09:04.873Z,40.6
2018-07-31T08:09:25.026Z,41.1
2018-07-31T08:09:45.201Z,41
2018-07-31T08:10:05.355Z,41.1
2018-07-31T08:10:25.503Z,41.5
2018-07-31T08:10:45.686Z,41.8
2018-07-31T08:11:05.852Z,41.8
2018-07-31T08:11:26.040Z,41.2
2018-07-31T08:11:46.207Z,41
2018-07-31T08:12:06.343Z,40.6
2018-07-31T08:12:26.535Z,40.4
2018-07-31T08:12:46.722Z,40.3
2018-07-31T08:13:06.985Z,40.5
2018-07-31T08:13:27.133Z,40.3
2018-07-31T08:13:47.301Z,40.5
2018-07-31T08:14:07.485Z,40.3
2018-07-31T08:14:27.673Z,40.7
2018-07-31T08:14:47.834Z,40.6
2018-07-31T08:15:08.292Z,40.5
2018-07-31T08:15:28.369Z,40.5
2018-07-31T08:15:48.503Z,40.4
2018-07-31T08:16:08.690Z,40.8
2018-07-31T08:16:28.872Z,40.9
2018-07-31T08:16:49.054Z,40.8
2018-07-31T08:17:09.192Z,40.4
2018-07-31T08:17:29.372Z,40.8
2018-07-31T08:17:49.539Z,40.7
2018-07-31T08:18:09.721Z,40.8
2018-07-31T08:18:29.865Z,41
2018-07-31T08:18:50.023Z,41.2
2018-07-31T08:19:10.188Z,41.7
2018-07-31T08:19:30.357Z,40.9
2018-07-31T08:19:50.507Z,40.9
2018-07-31T08:20:10.646Z,40.1
2018-07-31T08:20:30.820Z,40.3
2018-07-31T08:20:50.992Z,40.3
2018-07-31T08:21:11.185Z,40.5
2018-07-31T08:21:31.339Z,40.6
2018-07-31T08:21:51.507Z,40.6
2018-07-31T08:22:11.728Z,39.8
2018-07-31T08:22:31.976Z,39.7
2018-07-31T08:22:52.155Z,39.8
2018-07-31T08:23:12.339Z,39.6
2018-07-31T08:23:32.500Z,40.2
2018-07-31T08:23:52.658Z,40.2
2018-07-31T08:24:12.816Z,39.7
2018-07-31T08:24:32.956Z,40
2018-07-31T08:24:53.127Z,40.2
2018-07-31T08:25:13.342Z,39.5
2018-07-31T08:25:33.533Z,39.5
2018-07-31T08:25:53.656Z,40.3
2018-07-31T08:26:13.898Z,40.4
2018-07-31T08:26:34.070Z,40.3
2018-07-31T08:26:54.243Z,40.2
2018-07-31T08:27:14.471Z,39.7
2018-07-31T08:27:34.590Z,39.7
2018-07-31T08:27:55.103Z,39.3
2018-07-31T08:28:15.132Z,39.6
2018-07-31T08:28:35.302Z,39.6
2018-07-31T08:28:55.455Z,39.9
2018-07-31T08:29:15.613Z,39.7
2018-07-31T08:29:35.769Z,39.5
2018-07-31T08:29:55.905Z,39.5
2018-07-31T08:30:16.094Z,39.3
2018-07-31T08:30:36.229Z,37.9
2018-07-31T08:30:56.385Z,37.9
2018-07-31T08:31:16.603Z,38.4
2018-07-31T08:31:36.773Z,38.5
2018-07-31T08:31:56.943Z,38.1
2018-07-31T08:32:17.091Z,38
2018-07-31T08:32:37.266Z,37.3
2018-07-31T08:32:57.444Z,37.1
2018-07-31T08:33:17.609Z,37.3
2018-07-31T08:33:37.856Z,37.5
2018-07-31T08:33:57.991Z,38.3
2018-07-31T08:34:18.150Z,38.6
2018-07-31T08:34:38.425Z,38.4
2018-07-31T08:34:58.607Z,38.2
2018-07-31T08:35:18.769Z,38.1
2018-07-31T08:35:38.935Z,37.7
2018-07-31T08:35:59.091Z,37.4
2018-07-31T08:36:19.247Z,37.5
2018-07-31T08:36:39.446Z,37.7
2018-07-31T08:36:59.611Z,37.9
2018-07-31T08:37:19.797Z,38.5
2018-07-31T08:37:39.946Z,38.1
2018-07-31T08:38:00.099Z,37.9
2018-07-31T08:38:20.269Z,37.7
2018-07-31T08:38:40.450Z,37.7
2018-07-31T08:39:00.643Z,37.5
2018-07-31T08:39:20.795Z,37.3
2018-07-31T08:39:40.972Z,37.1
2018-07-31T08:40:01.120Z,37
2018-07-31T08:40:21.316Z,37
2018-07-31T08:40:41.444Z,36.6
2018-07-31T08:41:01.583Z,36.2
2018-07-31T08:41:21.761Z,36.4
2018-07-31T08:41:41.937Z,36.5
2018-07-31T08:42:02.105Z,35.9
2018-07-31T08:42:22.264Z,35.9
2018-07-31T08:42:42.399Z,35.9
2018-07-31T08:43:02.578Z,35.6
2018-07-31T08:43:22.740Z,35.7
2018-07-31T08:43:42.906Z,35.7
2018-07-31T08:44:03.109Z,36.1
2018-07-31T08:44:23.300Z,35.8
2018-07-31T08:44:43.472Z,36
2018-07-31T08:45:03.619Z,36
2018-07-31T08:45:23.813Z,36.2
2018-07-31T08:45:44.025Z,36.3
2018-07-31T08:46:04.197Z,36.2
2018-07-31T08:46:24.373Z,36.3
2018-07-31T08:46:44.550Z,36.4
2018-07-31T08:47:04.701Z,36
2018-07-31T08:47:24.886Z,36.8
2018-07-31T08:47:45.029Z,37.3
2018-07-31T08:48:05.217Z,36.3
2018-07-31T08:48:25.431Z,36.5
2018-07-31T08:48:45.622Z,36.5
2018-07-31T08:49:05.774Z,36.6
2018-07-31T08:49:25.928Z,37
2018-07-31T08:49:46.084Z,36.6
2018-07-31T08:50:06.277Z,36.1
2018-07-31T08:50:26.487Z,36.7
2018-07-31T08:50:46.672Z,37
2018-07-31T08:51:06.861Z,36.4
2018-07-31T08:51:27.152Z,36.4
2018-07-31T08:51:47.332Z,36.8
2018-07-31T08:52:07.491Z,36.8
2018-07-31T08:52:27.717Z,37
2018-07-31T08:52:47.893Z,37
2018-07-31T08:53:08.117Z,36.5
2018-07-31T08:53:28.315Z,35.9
2018-07-31T08:53:48.518Z,35.8
2018-07-31T08:54:08.675Z,35.6
2018-07-31T08:54:28.837Z,35.6
2018-07-31T08:54:49.007Z,36.1
2018-07-31T08:55:09.167Z,36.5
2018-07-31T08:55:29.333Z,36
2018-07-31T08:55:49.623Z,35.6
2018-07-31T08:56:09.713Z,35.9
2018-07-31T08:56:29.852Z,36.1
2018-07-31T08:56:50.015Z,36
2018-07-31T08:57:10.214Z,35.5
2018-07-31T08:57:30.350Z,35.3
2018-07-31T08:57:50.514Z,34.8
2018-07-31T08:58:10.640Z,33.6
2018-07-31T08:58:30.803Z,33.9
2018-07-31T08:58:50.978Z,33.8
2018-07-31T08:59:11.170Z,33.5
2018-07-31T08:59:31.319Z,34.3
2018-07-31T08:59:51.477Z,34.3
2018-07-31T09:00:11.628Z,34.8
2018-07-31T09:00:31.815Z,35.1
2018-07-31T09:00:51.966Z,34.7
2018-07-31T09:01:12.121Z,34.7
2018-07-31T09:01:32.273Z,34.5
2018-07-31T09:01:52.458Z,34.3
2018-07-31T09:02:12.637Z,34.4
2018-07-31T09:02:32.807Z,34.6
2018-07-31T09:02:53.082Z,34.6
2018-07-31T09:03:13.224Z,34.6
2018-07-31T09:03:33.395Z,34.7
2018-07-31T09:03:53.614Z,34.8
2018-07-31T09:04:13.799Z,34.9
2018-07-31T09:04:33.983Z,34.7
2018-07-31T09:04:54.135Z,35
2018-07-31T09:05:14.266Z,35.1
2018-07-31T09:05:34.460Z,34.8
2018-07-31T09:05:54.618Z,34.4
2018-07-31T09:06:14.785Z,34.3
2018-07-31T09:06:34.971Z,34.3
2018-07-31T09:06:55.123Z,34.7
2018-07-31T09:07:15.325Z,34.5
2018-07-31T09:07:35.487Z,34.2
2018-07-31T09:07:55.644Z,33.8
2018-07-31T09:08:15.864Z,33.8
2018-07-31T09:08:36.026Z,33.7
2018-07-31T09:08:56.594Z,34.9
2018-07-31T09:09:16.760Z,34.9
2018-07-31T09:09:36.928Z,34.6
2018-07-31T09:09:57.075Z,33.9
2018-07-31T09:10:17.239Z,32.7
2018-07-31T09:10:37.446Z,32.3
2018-07-31T09:10:57.656Z,32.3
2018-07-31T09:11:17.817Z,32.4
2018-07-31T09:11:38.002Z,31.9
2018-07-31T09:11:58.149Z,31.9
2018-07-31T09:12:18.310Z,32.3
2018-07-31T09:12:38.473Z,32.3
2018-07-31T09:12:58.649Z,32.2
2018-07-31T09:13:18.807Z,31.9
2018-07-31T09:13:38.984Z,32.1
2018-07-31T09:13:59.164Z,32.6
2018-07-31T09:14:19.307Z,32.6
2018-07-31T09:14:39.476Z,32.3
2018-07-31T09:14:59.632Z,32.3
2018-07-31T09:15:19.796Z,32.3
2018-07-31T09:15:39.944Z,32.4
2018-07-31T09:16:00.130Z,32.1
2018-07-31T09:16:20.297Z,32.5
2018-07-31T09:16:40.448Z,32.9
2018-07-31T09:17:00.598Z,32.9
2018-07-31T09:17:20.774Z,32.4
2018-07-31T09:17:40.968Z,31.5
2018-07-31T09:18:01.119Z,31.5
2018-07-31T09:18:21.286Z,31.8
2018-07-31T09:18:41.446Z,31.2
2018-07-31T09:19:01.604Z,31.1
2018-07-31T09:19:21.760Z,31.4
2018-07-31T09:19:41.928Z,31.6
2018-07-31T09:20:02.085Z,32.3
2018-07-31T09:20:22.249Z,32.4
2018-07-31T09:20:42.420Z,32.4
2018-07-31T09:21:02.560Z,32.4
2018-07-31T09:21:22.732Z,31.7
2018-07-31T09:21:42.911Z,31.6
2018-07-31T09:22:03.085Z,31.5
2018-07-31T09:22:23.268Z,31.5
2018-07-31T09:22:43.401Z,31.5
2018-07-31T09:23:03.561Z,31.6
2018-07-31T09:23:23.713Z,31.8
2018-07-31T09:23:43.862Z,31.9
2018-07-31T09:24:03.990Z,32.4
2018-07-31T09:24:24.206Z,32.1
2018-07-31T09:24:44.508Z,31.3
2018-07-31T09:25:04.681Z,30.7
2018-07-31T09:25:24.821Z,30.1
2018-07-31T09:25:44.948Z,30.3
2018-07-31T09:26:05.110Z,30.3
2018-07-31T09:26:25.304Z,31.1
2018-07-31T09:26:45.474Z,31.5
2018-07-31T09:27:05.646Z,31.9
2018-07-31T09:27:25.799Z,32.2
2018-07-31T09:27:45.966Z,32.9
2018-07-31T09:28:06.141Z,31.7
2018-07-31T09:28:26.283Z,30.5
2018-07-31T09:28:46.448Z,30.2
2018-07-31T09:29:06.606Z,30
2018-07-31T09:29:26.781Z,30.3
2018-07-31T09:29:46.924Z,30.4
2018-07-31T09:30:07.079Z,30.5
2018-07-31T09:30:27.303Z,30.7
2018-07-31T09:30:47.518Z,31.3
2018-07-31T09:31:07.762Z,30.7
2018-07-31T09:31:27.775Z,30.1
2018-07-31T09:31:47.935Z,30.7
2018-07-31T09:32:08.103Z,30.5
2018-07-31T09:32:28.257Z,29.7
2018-07-31T09:32:48.406Z,29.6
2018-07-31T09:33:08.574Z,29.1
2018-07-31T09:33:28.749Z,29.7
2018-07-31T09:33:48.907Z,30.3
2018-07-31T09:34:09.063Z,30.3
2018-07-31T09:34:29.226Z,30.3
2018-07-31T09:34:49.404Z,30.6
2018-07-31T09:35:09.564Z,30.2
2018-07-31T09:35:29.840Z,30.8
2018-07-31T09:35:50.032Z,30.8
2018-07-31T09:36:10.204Z,30.7
2018-07-31T09:36:30.375Z,30.6
2018-07-31T09:36:50.514Z,30.6
2018-07-31T09:37:10.685Z,30.4
2018-07-31T09:37:30.820Z,30.6
2018-07-31T09:37:50.978Z,30.5
2018-07-31T09:38:11.130Z,30.3
2018-07-31T09:38:31.306Z,30.2
2018-07-31T09:38:51.460Z,30.4
2018-07-31T09:39:11.624Z,30.4
2018-07-31T09:39:31.782Z,30.6
2018-07-31T09:39:51.935Z,30.3
2018-07-31T09:40:12.135Z,30.3
2018-07-31T09:40:32.207Z,29.4
2018-07-31T09:40:52.364Z,30
2018-07-31T09:41:12.547Z,30.4
2018-07-31T09:41:32.664Z,31.2
2018-07-31T09:41:52.825Z,31.3
2018-07-31T09:42:13.007Z,30.8
2018-07-31T09:42:33.212Z,31
2018-07-31T09:42:53.325Z,31.5
2018-07-31T09:43:13.470Z,31
2018-07-31T09:43:33.648Z,30.5
2018-07-31T09:43:53.820Z,30.3
2018-07-31T09:44:13.994Z,29.6
2018-07-31T09:44:34.150Z,30.4
2018-07-31T09:44:54.294Z,30.3
2018-07-31T09:45:14.453Z,29.9
2018-07-31T09:45:34.610Z,29.4
2018-07-31T09:45:54.804Z,29.3
2018-07-31T09:46:14.940Z,29.9
2018-07-31T09:46:35.075Z,29.8
2018-07-31T09:46:55.251Z,30.7
2018-07-31T09:47:15.430Z,30.1
2018-07-31T09:47:35.592Z,29.8
2018-07-31T09:47:55.775Z,29.8
2018-07-31T09:48:15.955Z,29.1
2018-07-31T09:48:36.096Z,29.2
2018-07-31T09:48:56.273Z,29.3
2018-07-31T09:49:16.438Z,29.4
2018-07-31T09:49:36.592Z,28.8
2018-07-31T09:49:56.764Z,28.4
2018-07-31T09:50:16.913Z,28.6
2018-07-31T09:50:37.137Z,28.6
2018-07-31T09:50:57.374Z,28.1
2018-07-31T09:51:17.536Z,28
2018-07-31T09:51:37.739Z,28.6
2018-07-31T09:51:57.878Z,28.7
2018-07-31T09:52:18.046Z,28.6
2018-07-31T09:52:38.207Z,28.7
2018-07-31T09:52:58.320Z,29.2
2018-07-31T09:53:18.471Z,29.1
2018-07-31T09:53:38.641Z,29.5
2018-07-31T09:53:58.818Z,30.3
2018-07-31T09:54:18.992Z,30.5
2018-07-31T09:54:39.159Z,30.9
2018-07-31T09:54:59.417Z,30.8
2018-07-31T09:55:19.580Z,31.2
2018-07-31T09:55:39.763Z,30.3
2018-07-31T09:55:59.926Z,30.3
2018-07-31T09:56:20.093Z,30.6
2018-07-31T09:56:40.249Z,30.2
2018-07-31T09:57:00.423Z,30.3
2018-07-31T09:57:20.622Z,30.1
2018-07-31T09:57:40.765Z,30.3
2018-07-31T09:58:00.921Z,29.3
2018-07-31T09:58:21.104Z,29.5
2018-07-31T09:58:41.284Z,30.3
2018-07-31T09:59:01.489Z,30.3
2018-07-31T09:59:21.797Z,30.5
2018-07-31T09:59:41.979Z,30.5
2018-07-31T10:00:02.107Z,30.3
2018-07-31T10:00:22.245Z,30.8
2018-07-31T10:00:42.399Z,30.4
2018-07-31T10:01:02.555Z,30.7
2018-07-31T10:01:22.695Z,29.7
2018-07-31T10:01:42.827Z,29.4
2018-07-31T10:02:02.990Z,29.2
2018-07-31T10:02:23.156Z,29.9
2018-07-31T10:02:43.403Z,30.3
2018-07-31T10:03:03.598Z,30.8
2018-07-31T10:03:23.766Z,30.8
2018-07-31T10:03:43.915Z,30.8
2018-07-31T10:04:04.060Z,30.1
2018-07-31T10:04:24.245Z,29.8
2018-07-31T10:04:44.400Z,29.6
2018-07-31T10:05:04.682Z,29.4
2018-07-31T10:05:24.888Z,29.7
2018-07-31T10:05:44.959Z,29.9
2018-07-31T10:06:05.118Z,29.4
2018-07-31T10:06:25.304Z,29.2
2018-07-31T10:06:45.482Z,29.2
2018-07-31T10:07:05.689Z,29
2018-07-31T10:07:25.838Z,29
2018-07-31T10:07:46.043Z,28.9
2018-07-31T10:08:06.261Z,28.8
2018-07-31T10:08:26.429Z,29.1
2018-07-31T10:08:46.575Z,29.1
2018-07-31T10:09:06.719Z,29.3
2018-07-31T10:09:26.889Z,29.3
2018-07-31T10:09:47.069Z,29.3
2018-07-31T10:10:07.213Z,29.1
2018-07-31T10:10:27.394Z,29.2
2018-07-31T10:10:47.577Z,29.4
2018-07-31T10:11:07.740Z,29.4
2018-07-31T10:11:27.910Z,29.2
2018-07-31T10:11:48.119Z,29.2
2018-07-31T10:12:08.371Z,29.3
2018-07-31T10:12:28.592Z,29.6
2018-07-31T10:12:48.750Z,29.4
2018-07-31T10:13:08.982Z,29.4
2018-07-31T10:13:29.163Z,29.5
2018-07-31T10:13:49.315Z,29.8
2018-07-31T10:14:09.490Z,29.9
2018-07-31T10:14:29.646Z,29.2
2018-07-31T10:14:49.822Z,28.9
2018-07-31T10:15:10.022Z,29.3
2018-07-31T10:15:30.230Z,29.4
2018-07-31T10:15:50.388Z,29.3
2018-07-31T10:16:10.572Z,29.2
2018-07-31T10:16:30.732Z,29.2
2018-07-31T10:16:50.902Z,29